Sherman-Denison, TX

6:59 AM CST on November 21, 2017 (GMT -0600)
Sherman-Denison

Weather History for KGYI - March, 2014

Change the Weather History Date:

Wednesday, March 12, 2014

  Actual Average (KDFW) Record (KDFW)
Temperature  
Mean Temperature 50 °F -  
Max Temperature 60 °F 62 °F 91 °F (1918)
Min Temperature 41 °F 44 °F 14 °F (1948)
Degree Days  
Heating Degree Days 14    
Moisture  
Dew Point 24 °F    
Average Humidity 40    
Maximum Humidity 62    
Minimum Humidity 18    
Precipitation  
Precipitation 0.00 in - - ()
Sea Level Pressure  
Sea Level Pressure 30.17 in    
Wind  
Wind Speed 18 mph (NNW)    
Max Wind Speed 34 mph    
Max Gust Speed 43 mph    
Visibility 10 miles    
Events      
Averages and records for this station are not official NWS values.
T = Trace of Precipitation, MM = Missing Value Source: NWS Daily Summary

Daily Weather History Graph

Daily Weather History Graph

Search for Another Location

Airport or City:

Trip Planner

Search our weather history database for the weather conditions in past years. The results will help you decide how hot, cold, wet, or windy it might be!

Date:

Astronomy

Mar. 12, 2014 Rise Set
Actual Time 7:41 AM CDT 7:32 PM CDT
Civil Twilight 7:16 AM CDT 7:57 PM CDT
Nautical Twilight 6:47 AM CDT 8:25 PM CDT
Astronomical Twilight 6:18 AM CDT 8:55 PM CDT
Moon 4:11 PM CDT (3/12) 5:04 AM CDT (3/12)
Length of Visible Light 12h 40m
Length of Day
11h 51m
Waxing Gibbous, 85% of the Moon is Illuminated
Mar 12
Waxing Gibbous
Mar 16
Full
Mar 23
Last Quarter
Mar 30
New
Apr 7
First Quarter

Hourly Weather History & Observations

Time (CDT) Temp. Windchill Dew Point Humidity Pressure Visibility Wind Dir Wind Speed Gust Speed Precip Events Conditions
12:15 AM 53.6 °F - 34.9 °F 49% 29.86 in 10.0 mi NNW 13.8 mph 25.3 mph N/A   Clear
12:35 AM 52.7 °F - 34.5 °F 50% 29.88 in 10.0 mi North 27.6 mph 36.8 mph N/A   Clear
12:55 AM 51.3 °F - 34.7 °F 53% 29.90 in 10.0 mi North 18.4 mph 31.1 mph N/A   Clear
1:15 AM 50.5 °F - 34.7 °F 55% 29.91 in 10.0 mi North 20.7 mph 33.4 mph N/A   Clear
1:35 AM 50.0 °F - 34.7 °F 56% 29.93 in 10.0 mi NNW 18.4 mph 28.8 mph N/A   Clear
1:55 AM 49.5 °F - 34.5 °F 56% 29.93 in 10.0 mi North 24.2 mph 28.8 mph N/A   Clear
2:15 AM 49.5 °F - 34.2 °F 56% 29.95 in 10.0 mi NNW 20.7 mph 32.2 mph N/A   Clear
2:35 AM 49.5 °F - 34.2 °F 56% 29.96 in 10.0 mi NNW 23.0 mph 29.9 mph N/A   Clear
2:55 AM 49.3 °F - 34.0 °F 56% 29.97 in 10.0 mi NNW 28.8 mph 35.7 mph N/A   Clear
3:15 AM 48.6 °F - 33.8 °F 57% 29.98 in 10.0 mi NNW 29.9 mph 38.0 mph N/A   Clear
3:35 AM 48.2 °F - 33.8 °F 58% 29.99 in 10.0 mi NNW 34.5 mph 42.6 mph N/A   Scattered Clouds
3:55 AM 48.4 °F - 34.2 °F 58% 30.00 in 10.0 mi NNW 27.6 mph 39.1 mph N/A   Overcast
4:15 AM 48.2 °F - 34.3 °F 59% 30.01 in 10.0 mi NNW 21.9 mph 27.6 mph N/A   Overcast
4:35 AM 47.7 °F - 34.0 °F 59% 30.01 in 10.0 mi NNW 27.6 mph 33.4 mph N/A   Overcast
4:55 AM 47.5 °F - 33.8 °F 59% 30.02 in 10.0 mi North 24.2 mph 38.0 mph N/A   Overcast
5:15 AM 46.8 °F - 33.6 °F 60% 30.04 in 10.0 mi North 24.2 mph 29.9 mph N/A   Overcast
5:35 AM 45.9 °F 37.6 °F 32.7 °F 60% 30.05 in 10.0 mi NNW 23.0 mph 33.4 mph N/A   Scattered Clouds
5:55 AM 44.6 °F 36.4 °F 31.6 °F 60% 30.07 in 10.0 mi NNW 20.7 mph 32.2 mph N/A   Scattered Clouds
6:15 AM 44.1 °F 35.4 °F 30.6 °F 59% 30.09 in 10.0 mi North 21.9 mph 29.9 mph N/A   Clear
6:35 AM 43.7 °F 35.0 °F 29.8 °F 58% 30.10 in 10.0 mi North 21.9 mph 31.1 mph N/A   Clear
7:00 AM 43.3 °F 35.2 °F 29.3 °F 58% 30.11 in 10.0 mi North 18.4 mph 24.2 mph N/A   Clear
7:15 AM 42.8 °F 34.8 °F 30.2 °F 61% 30.13 in 10.0 mi North 17.3 mph 21.9 mph N/A   Clear
7:35 AM 42.3 °F 34.8 °F 29.7 °F 61% 30.15 in 10.0 mi NNW 15.0 mph - N/A   Clear
7:55 AM 41.9 °F 33.1 °F 29.7 °F 62% 30.16 in 10.0 mi North 19.6 mph 23.0 mph N/A   Clear
8:15 AM 41.9 °F 34.3 °F 29.1 °F 61% 30.18 in 10.0 mi North 15.0 mph - N/A   Clear
8:35 AM 42.4 °F 34.4 °F 28.8 °F 58% 30.19 in 10.0 mi NNW 17.3 mph 26.5 mph N/A   Clear
8:55 AM 43.0 °F 34.8 °F 27.9 °F 55% 30.21 in 10.0 mi North 18.4 mph 28.8 mph N/A   Clear
9:15 AM 44.2 °F 36.4 °F 27.7 °F 52% 30.23 in 10.0 mi North 18.4 mph 26.5 mph N/A   Clear
9:35 AM 45.5 °F 38.3 °F 27.1 °F 49% 30.25 in 10.0 mi North 17.3 mph 24.2 mph N/A   Clear
9:55 AM 46.6 °F - 25.9 °F 44% 30.25 in 10.0 mi North 24.2 mph 28.8 mph N/A   Clear
10:15 AM 47.1 °F - 23.7 °F 40% 30.27 in 10.0 mi North 21.9 mph 28.8 mph N/A   Clear
10:35 AM 48.4 °F - 23.7 °F 38% 30.27 in 10.0 mi North 21.9 mph 29.9 mph N/A   Clear
10:55 AM 49.5 °F - 22.5 °F 35% 30.28 in 10.0 mi North 17.3 mph 27.6 mph N/A   Clear
11:15 AM 50.5 °F - 21.6 °F 32% 30.29 in 10.0 mi North 17.3 mph 25.3 mph N/A   Clear
11:35 AM 51.3 °F - 20.1 °F 29% 30.30 in 10.0 mi North 21.9 mph 32.2 mph N/A   Clear
11:55 AM 52.5 °F - 20.8 °F 29% 30.30 in 10.0 mi North 19.6 mph 29.9 mph N/A   Clear
12:15 PM 53.2 °F - 20.7 °F 28% 30.30 in 10.0 mi North 18.4 mph 24.2 mph N/A   Clear
12:35 PM 54.1 °F - 19.2 °F 25% 30.30 in 10.0 mi North 20.7 mph 26.5 mph N/A   Clear
1:15 PM 55.6 °F - 18.3 °F 23% 30.29 in 10.0 mi North 19.6 mph 27.6 mph N/A   Clear
1:35 PM 56.7 °F - 18.0 °F 22% 30.28 in 10.0 mi North 15.0 mph 26.5 mph N/A   Clear
1:55 PM 57.6 °F - 17.2 °F 21% 30.27 in 10.0 mi North 20.7 mph 26.5 mph N/A   Clear
2:15 PM 58.3 °F - 18.0 °F 21% 30.27 in 10.0 mi NNW 18.4 mph 26.5 mph N/A   Clear
2:35 PM 58.3 °F - 17.2 °F 20% 30.26 in 10.0 mi North 21.9 mph 28.8 mph N/A   Clear
2:55 PM 58.5 °F - 16.9 °F 20% 30.25 in 10.0 mi North 19.6 mph 24.2 mph N/A   Clear
3:15 PM 58.6 °F - 16.5 °F 19% 30.25 in 10.0 mi North 20.7 mph 26.5 mph N/A   Clear
3:35 PM 58.5 °F - 17.1 °F 20% 30.25 in 10.0 mi NNW 12.7 mph 28.8 mph N/A   Clear
3:55 PM 59.5 °F - 17.2 °F 19% 30.24 in 10.0 mi North 10.4 mph 23.0 mph N/A   Clear
4:15 PM 59.7 °F - 16.9 °F 19% 30.23 in 10.0 mi North 15.0 mph 20.7 mph N/A   Clear
4:35 PM 60.1 °F - 15.8 °F 18% 30.23 in 10.0 mi North 18.4 mph 25.3 mph N/A   Clear
4:55 PM 59.7 °F - 16.9 °F 19% 30.23 in 10.0 mi North 12.7 mph 25.3 mph N/A   Clear
5:15 PM 59.7 °F - 15.3 °F 18% 30.23 in 10.0 mi North 8.1 mph 17.3 mph N/A   Clear
5:35 PM 59.5 °F - 15.4 °F 18% 30.22 in 10.0 mi North 16.1 mph - N/A   Clear
5:55 PM 59.2 °F - 14.7 °F 18% 30.22 in 10.0 mi North 12.7 mph 20.7 mph N/A   Clear
6:15 PM 58.8 °F - 15.1 °F 18% 30.22 in 10.0 mi North 17.3 mph - N/A   Clear
6:35 PM 58.1 °F - 15.8 °F 19% 30.22 in 10.0 mi NNW 9.2 mph - N/A   Clear
6:55 PM 57.2 °F - 16.5 °F 20% 30.23 in 10.0 mi NNW 9.2 mph 16.1 mph N/A   Clear
7:15 PM 55.6 °F - 16.5 °F 22% 30.23 in 10.0 mi NNW 9.2 mph - N/A   Clear
7:35 PM 52.2 °F - 17.8 °F 26% 30.24 in 10.0 mi NNW 6.9 mph - N/A   Clear
7:55 PM 50.4 °F - 17.6 °F 27% 30.24 in 10.0 mi NNW 3.5 mph - N/A   Clear
8:15 PM 50.2 °F - 17.2 °F 27% 30.25 in 10.0 mi Calm Calm - N/A   Clear
8:35 PM 49.5 °F - 17.2 °F 28% 30.25 in 10.0 mi Calm Calm - N/A   Clear
8:55 PM 47.8 °F - 19.0 °F 32% 30.26 in 10.0 mi Calm Calm - N/A   Clear
9:15 PM 46.6 °F - 21.2 °F 37% 30.26 in 10.0 mi Calm Calm - N/A   Clear
9:35 PM 46.6 °F - 20.3 °F 35% 30.27 in 10.0 mi Calm Calm - N/A   Clear
9:55 PM 44.8 °F - 21.0 °F 39% 30.27 in 10.0 mi Calm Calm - N/A   Clear
10:15 PM 44.8 °F - 20.7 °F 38% 30.27 in 10.0 mi Calm Calm - N/A   Clear
10:35 PM 45.7 °F - 20.3 °F 37% 30.27 in 10.0 mi Calm Calm - N/A   Clear
10:55 PM 45.1 °F - 22.3 °F 40% 30.28 in 10.0 mi Calm Calm - N/A   Clear
11:15 PM 44.6 °F - 23.2 °F 43% 30.28 in 10.0 mi Calm Calm - N/A   Clear
11:35 PM 43.0 °F - 23.7 °F 47% 30.28 in 10.0 mi Calm Calm - N/A   Clear
11:55 PM 41.9 °F - 21.9 °F 45% 30.28 in 10.0 mi Calm Calm - N/A   Clear